Time,TemperatureF,DewpointF,PressureIn,WindDirection,WindDirectionDegrees,WindSpeedMPH,WindSpeedGustMPH,Humidity,HourlyPrecipIn,Conditions,Clouds,dailyrainin,SolarRadiationWatts/m^2,SoftwareType,DateUTC
2013-01-14 00:04:00,69.0,67.0,-100.00,NE,53,2.0,3.0,94,0.00,,,0.01,0.000000,,2013-01-14 05:04:00,
2013-01-14 00:12:00,69.0,67.0,-100.00,NE,53,2.0,3.0,94,0.00,,,0.01,0.000000,,2013-01-14 05:12:00,
2013-01-14 00:22:00,69.0,67.0,-100.00,NE,53,2.0,3.0,94,0.00,,,0.01,0.000000,,2013-01-14 05:22:00,
2013-01-14 00:32:00,69.0,68.0,-100.00,ENE,65,2.0,4.0,96,0.00,,,0.01,0.000000,,2013-01-14 05:32:00,
2013-01-14 00:53:00,69.0,68.0,-100.00,ENE,65,2.0,4.0,96,0.00,,,0.01,0.000000,,2013-01-14 05:53:00,
2013-01-14 01:03:00,69.0,68.0,-100.00,ENE,65,2.0,4.0,96,0.00,,,0.01,0.000000,,2013-01-14 06:03:00,
2013-01-14 01:12:00,69.0,68.0,-100.00,ENE,65,2.0,4.0,96,0.00,,,0.01,0.000000,,2013-01-14 06:12:00,
2013-01-14 01:23:00,69.0,68.0,-100.00,ENE,65,2.0,4.0,96,0.00,,,0.01,0.000000,,2013-01-14 06:23:00,
2013-01-14 01:32:00,67.0,66.0,-100.00,NNW,336,1.0,3.0,96,0.00,,,0.01,0.000000,,2013-01-14 06:32:00,
2013-01-14 01:53:00,67.0,66.0,-100.00,NNW,336,1.0,3.0,96,0.00,,,0.01,0.000000,,2013-01-14 06:53:00,
2013-01-14 02:02:00,67.0,66.0,-100.00,NNW,336,1.0,3.0,96,0.00,,,0.01,0.000000,,2013-01-14 07:02:00,
2013-01-14 02:12:00,67.0,66.0,-100.00,NNW,336,1.0,3.0,96,0.00,,,0.01,0.000000,,2013-01-14 07:12:00,
2013-01-14 02:23:00,67.0,66.0,-100.00,NNW,336,1.0,3.0,96,0.00,,,0.01,0.000000,,2013-01-14 07:23:00,
2013-01-14 02:32:00,66.0,65.0,-100.00,North,3,1.0,5.0,98,0.00,,,0.01,0.000000,,2013-01-14 07:32:00,
2013-01-14 02:53:00,66.0,65.0,-100.00,North,3,1.0,5.0,98,0.00,,,0.01,0.000000,,2013-01-14 07:53:00,
2013-01-14 03:02:00,66.0,65.0,-100.00,North,3,1.0,5.0,98,0.00,,,0.01,0.000000,,2013-01-14 08:02:00,
2013-01-14 03:12:00,66.0,65.0,-100.00,North,3,1.0,5.0,98,0.00,,,0.01,0.000000,,2013-01-14 08:12:00,
2013-01-14 03:22:00,66.0,65.0,-100.00,North,3,1.0,5.0,98,0.00,,,0.01,0.000000,,2013-01-14 08:22:00,
2013-01-14 03:32:00,66.0,65.0,-100.00,East,100,4.0,5.0,98,0.00,,,0.01,0.000000,,2013-01-14 08:32:00,
2013-01-14 03:53:00,66.0,65.0,-100.00,East,100,4.0,5.0,98,0.00,,,0.01,0.000000,,2013-01-14 08:53:00,
2013-01-14 04:03:00,66.0,65.0,-100.00,East,100,4.0,5.0,98,0.00,,,0.01,0.000000,,2013-01-14 09:03:00,
2013-01-14 04:12:00,66.0,65.0,-100.00,East,100,4.0,5.0,98,0.00,,,0.01,0.000000,,2013-01-14 09:12:00,
2013-01-14 04:23:00,66.0,65.0,-100.00,East,100,4.0,5.0,98,0.00,,,0.01,0.000000,,2013-01-14 09:23:00,
2013-01-14 04:32:00,66.0,65.0,-100.00,East,99,3.0,5.0,96,0.00,,,0.01,0.000000,,2013-01-14 09:32:00,
2013-01-14 04:53:00,66.0,65.0,-100.00,East,99,3.0,5.0,96,0.00,,,0.01,0.000000,,2013-01-14 09:53:00,
2013-01-14 05:03:00,66.0,65.0,-100.00,East,99,3.0,5.0,96,0.00,,,0.01,0.000000,,2013-01-14 10:03:00,
2013-01-14 05:12:00,66.0,65.0,-100.00,East,99,3.0,5.0,96,0.00,,,0.01,0.000000,,2013-01-14 10:12:00,
2013-01-14 05:23:00,66.0,65.0,-100.00,East,99,3.0,5.0,96,0.00,,,0.01,0.000000,,2013-01-14 10:23:00,
2013-01-14 05:32:00,65.0,64.0,-100.00,ENE,78,3.0,5.0,95,0.00,,,0.01,0.000000,,2013-01-14 10:32:00,
2013-01-14 05:53:00,65.0,64.0,-100.00,ENE,78,3.0,5.0,95,0.00,,,0.01,0.000000,,2013-01-14 10:53:00,
2013-01-14 06:02:00,65.0,64.0,-100.00,ENE,78,3.0,5.0,95,0.00,,,0.01,0.000000,,2013-01-14 11:02:00,
2013-01-14 06:12:00,65.0,64.0,-100.00,ENE,78,3.0,5.0,95,0.00,,,0.01,0.000000,,2013-01-14 11:12:00,
2013-01-14 06:22:00,65.0,64.0,-100.00,ENE,78,3.0,5.0,95,0.00,,,0.01,0.000000,,2013-01-14 11:22:00,
2013-01-14 06:32:00,64.0,63.0,-100.00,NNE,15,0.0,5.0,96,0.00,,,0.01,0.000000,,2013-01-14 11:32:00,
2013-01-14 06:53:00,64.0,63.0,-100.00,NNE,15,0.0,5.0,96,0.00,,,0.01,0.000000,,2013-01-14 11:53:00,
2013-01-14 07:03:00,64.0,63.0,-100.00,NNE,15,0.0,5.0,96,0.00,,,0.01,0.000000,,2013-01-14 12:03:00,
2013-01-14 07:12:00,64.0,63.0,-100.00,NNE,15,0.0,5.0,96,0.00,,,0.01,0.000000,,2013-01-14 12:12:00,
2013-01-14 07:23:00,64.0,63.0,-100.00,NNE,15,0.0,5.0,96,0.00,,,0.01,0.000000,,2013-01-14 12:23:00,
2013-01-14 07:32:00,65.0,63.0,-100.00,ESE,105,4.0,7.0,94,0.00,,,0.00,8.000000,,2013-01-14 12:32:00,
2013-01-14 07:53:00,65.0,63.0,-100.00,ESE,105,4.0,7.0,94,0.00,,,0.00,8.000000,,2013-01-14 12:53:00,
2013-01-14 08:03:00,65.0,63.0,-100.00,ESE,105,4.0,7.0,94,0.00,,,0.00,8.000000,,2013-01-14 13:03:00,
2013-01-14 08:13:00,65.0,63.0,-100.00,ESE,105,4.0,7.0,94,0.00,,,0.00,8.000000,,2013-01-14 13:13:00,
2013-01-14 08:23:00,65.0,63.0,-100.00,ESE,105,4.0,7.0,94,0.00,,,0.00,8.000000,,2013-01-14 13:23:00,
2013-01-14 08:32:00,70.0,67.0,-100.00,East,101,2.0,5.0,91,0.00,,,0.00,93.000000,,2013-01-14 13:32:00,
2013-01-14 08:53:00,70.0,67.0,-100.00,East,101,2.0,5.0,91,0.00,,,0.00,93.000000,,2013-01-14 13:53:00,
2013-01-14 09:03:00,70.0,67.0,-100.00,East,101,2.0,5.0,91,0.00,,,0.00,93.000000,,2013-01-14 14:03:00,
2013-01-14 09:13:00,70.0,67.0,-100.00,East,101,2.0,5.0,91,0.00,,,0.00,93.000000,,2013-01-14 14:13:00,
2013-01-14 09:23:00,70.0,67.0,-100.00,East,101,2.0,5.0,91,0.00,,,0.00,93.000000,,2013-01-14 14:23:00,
2013-01-14 09:32:00,75.0,67.0,-100.00,SE,145,5.0,7.0,75,0.00,,,0.00,223.000000,,2013-01-14 14:32:00,
2013-01-14 09:53:00,75.0,67.0,-100.00,SE,145,5.0,7.0,75,0.00,,,0.00,223.000000,,2013-01-14 14:53:00,
2013-01-14 10:03:00,75.0,67.0,-100.00,SE,145,5.0,7.0,75,0.00,,,0.00,223.000000,,2013-01-14 15:03:00,
2013-01-14 10:12:00,75.0,67.0,-100.00,SE,145,5.0,7.0,75,0.00,,,0.00,223.000000,,2013-01-14 15:12:00,
2013-01-14 10:23:00,75.0,67.0,-100.00,SE,145,5.0,7.0,75,0.00,,,0.00,223.000000,,2013-01-14 15:23:00,
2013-01-14 10:32:00,77.0,64.0,-100.00,SE,140,7.0,14.0,65,0.00,,,0.00,401.000000,,2013-01-14 15:32:00,
2013-01-14 10:53:00,77.0,64.0,-100.00,SE,140,7.0,14.0,65,0.00,,,0.00,401.000000,,2013-01-14 15:53:00,
2013-01-14 11:03:00,77.0,64.0,-100.00,SE,140,7.0,14.0,65,0.00,,,0.00,401.000000,,2013-01-14 16:03:00,
2013-01-14 11:13:00,77.0,64.0,-100.00,SE,140,7.0,14.0,65,0.00,,,0.00,401.000000,,2013-01-14 16:13:00,
2013-01-14 11:23:00,77.0,64.0,-100.00,SE,140,7.0,14.0,65,0.00,,,0.00,401.000000,,2013-01-14 16:23:00,
2013-01-14 11:32:00,79.0,62.0,-100.00,SE,124,11.0,17.0,57,0.00,,,0.00,407.000000,,2013-01-14 16:32:00,
2013-01-14 11:53:00,79.0,62.0,-100.00,SE,124,11.0,17.0,57,0.00,,,0.00,407.000000,,2013-01-14 16:53:00,
2013-01-14 12:03:00,79.0,62.0,-100.00,SE,124,11.0,17.0,57,0.00,,,0.00,407.000000,,2013-01-14 17:03:00,
2013-01-14 12:12:00,79.0,62.0,-100.00,SE,124,11.0,17.0,57,0.00,,,0.00,407.000000,,2013-01-14 17:12:00,
2013-01-14 12:23:00,79.0,62.0,-100.00,SE,124,11.0,17.0,57,0.00,,,0.00,407.000000,,2013-01-14 17:23:00,
2013-01-14 12:32:00,81.0,62.0,-100.00,SSE,157,11.0,17.0,52,0.00,,,0.00,611.000000,,2013-01-14 17:32:00,
2013-01-14 12:54:00,81.0,62.0,-100.00,SSE,157,11.0,17.0,52,0.00,,,0.00,611.000000,,2013-01-14 17:54:00,
2013-01-14 13:03:00,81.0,62.0,-100.00,SSE,157,11.0,17.0,52,0.00,,,0.00,611.000000,,2013-01-14 18:03:00,
2013-01-14 13:13:00,81.0,62.0,-100.00,SSE,157,11.0,17.0,52,0.00,,,0.00,611.000000,,2013-01-14 18:13:00,
2013-01-14 13:23:00,81.0,62.0,-100.00,SSE,157,11.0,17.0,52,0.00,,,0.00,611.000000,,2013-01-14 18:23:00,
2013-01-14 13:32:00,79.0,60.0,-100.00,SSE,149,10.0,17.0,53,0.00,,,0.00,606.000000,,2013-01-14 18:32:00,
2013-01-14 13:53:00,79.0,60.0,-100.00,SSE,149,10.0,17.0,53,0.00,,,0.00,606.000000,,2013-01-14 18:53:00,
2013-01-14 14:03:00,79.0,60.0,-100.00,SSE,149,10.0,17.0,53,0.00,,,0.00,606.000000,,2013-01-14 19:03:00,
2013-01-14 14:13:00,79.0,60.0,-100.00,SSE,149,10.0,17.0,53,0.00,,,0.00,606.000000,,2013-01-14 19:13:00,
2013-01-14 14:22:00,79.0,60.0,-100.00,SSE,149,10.0,17.0,53,0.00,,,0.00,606.000000,,2013-01-14 19:22:00,
2013-01-14 14:32:00,81.0,62.0,-100.00,SE,141,10.0,17.0,53,0.00,,,0.00,454.000000,,2013-01-14 19:32:00,
2013-01-14 14:53:00,81.0,62.0,-100.00,SE,141,10.0,17.0,53,0.00,,,0.00,454.000000,,2013-01-14 19:53:00,
2013-01-14 15:04:00,81.0,62.0,-100.00,SE,141,10.0,17.0,53,0.00,,,0.00,454.000000,,2013-01-14 20:04:00,
2013-01-14 15:13:00,81.0,62.0,-100.00,SE,141,10.0,17.0,53,0.00,,,0.00,454.000000,,2013-01-14 20:13:00,
2013-01-14 15:23:00,81.0,62.0,-100.00,SE,141,10.0,17.0,53,0.00,,,0.00,454.000000,,2013-01-14 20:23:00,
2013-01-14 15:32:00,81.0,62.0,-100.00,SE,145,9.0,18.0,53,0.00,,,0.00,485.000000,,2013-01-14 20:32:00,
2013-01-14 15:53:00,81.0,62.0,-100.00,SE,145,9.0,18.0,53,0.00,,,0.00,485.000000,,2013-01-14 20:53:00,
2013-01-14 16:03:00,81.0,62.0,-100.00,SE,145,9.0,18.0,53,0.00,,,0.00,485.000000,,2013-01-14 21:03:00,
2013-01-14 16:13:00,81.0,62.0,-100.00,SE,145,9.0,18.0,53,0.00,,,0.00,485.000000,,2013-01-14 21:13:00,
2013-01-14 16:23:00,81.0,62.0,-100.00,SE,145,9.0,18.0,53,0.00,,,0.00,485.000000,,2013-01-14 21:23:00,
2013-01-14 16:32:00,80.0,62.0,-100.00,SE,129,10.0,14.0,55,0.00,,,0.00,331.000000,,2013-01-14 21:32:00,
2013-01-14 16:53:00,80.0,62.0,-100.00,SE,129,10.0,14.0,55,0.00,,,0.00,331.000000,,2013-01-14 21:53:00,
2013-01-14 17:03:00,80.0,62.0,-100.00,SE,129,10.0,14.0,55,0.00,,,0.00,331.000000,,2013-01-14 22:03:00,
2013-01-14 17:12:00,80.0,62.0,-100.00,SE,129,10.0,14.0,55,0.00,,,0.00,331.000000,,2013-01-14 22:12:00,
2013-01-14 17:23:00,80.0,62.0,-100.00,SE,129,10.0,14.0,55,0.00,,,0.00,331.000000,,2013-01-14 22:23:00,
2013-01-14 17:32:00,75.0,62.0,-100.00,SE,125,7.0,14.0,65,0.00,,,0.00,106.000000,,2013-01-14 22:32:00,
2013-01-14 17:53:00,75.0,62.0,-100.00,SE,125,7.0,14.0,65,0.00,,,0.00,106.000000,,2013-01-14 22:53:00,
2013-01-14 18:03:00,75.0,62.0,-100.00,SE,125,7.0,14.0,65,0.00,,,0.00,106.000000,,2013-01-14 23:03:00,
2013-01-14 18:12:00,75.0,62.0,-100.00,SE,125,7.0,14.0,65,0.00,,,0.00,106.000000,,2013-01-14 23:12:00,
2013-01-14 18:23:00,75.0,62.0,-100.00,SE,125,7.0,14.0,65,0.00,,,0.00,106.000000,,2013-01-14 23:23:00,
2013-01-14 18:32:00,70.0,65.0,-100.00,ESE,121,4.0,8.0,85,0.00,,,0.00,5.000000,,2013-01-14 23:32:00,
2013-01-14 18:53:00,70.0,65.0,-100.00,ESE,121,4.0,8.0,85,0.00,,,0.00,5.000000,,2013-01-14 23:53:00,
2013-01-14 19:03:00,70.0,65.0,-100.00,ESE,121,4.0,8.0,85,0.00,,,0.00,5.000000,,2013-01-15 00:03:00,
2013-01-14 19:12:00,70.0,65.0,-100.00,ESE,121,4.0,8.0,85,0.00,,,0.00,5.000000,,2013-01-15 00:12:00,
2013-01-14 19:23:00,70.0,65.0,-100.00,ESE,121,4.0,8.0,85,0.00,,,0.00,5.000000,,2013-01-15 00:23:00,
2013-01-14 19:32:00,69.0,67.0,-100.00,East,84,3.0,6.0,92,0.00,,,0.00,0.000000,,2013-01-15 00:32:00,
2013-01-14 19:53:00,69.0,67.0,-100.00,East,84,3.0,6.0,92,0.00,,,0.00,0.000000,,2013-01-15 00:53:00,
2013-01-14 20:02:00,69.0,67.0,-100.00,East,84,3.0,6.0,92,0.00,,,0.00,0.000000,,2013-01-15 01:02:00,
2013-01-14 20:12:00,69.0,67.0,-100.00,East,84,3.0,6.0,92,0.00,,,0.00,0.000000,,2013-01-15 01:12:00,
2013-01-14 20:22:00,69.0,67.0,-100.00,East,84,3.0,6.0,92,0.00,,,0.00,0.000000,,2013-01-15 01:22:00,
2013-01-14 20:32:00,68.0,66.0,-100.00,East,97,4.0,5.0,93,0.00,,,0.00,0.000000,,2013-01-15 01:32:00,
2013-01-14 20:53:00,68.0,66.0,-100.00,East,97,4.0,5.0,93,0.00,,,0.00,0.000000,,2013-01-15 01:53:00,
2013-01-14 21:03:00,68.0,66.0,-100.00,East,97,4.0,5.0,93,0.00,,,0.00,0.000000,,2013-01-15 02:03:00,
2013-01-14 21:12:00,68.0,66.0,-100.00,East,97,4.0,5.0,93,0.00,,,0.00,0.000000,,2013-01-15 02:12:00,
2013-01-14 21:23:00,68.0,66.0,-100.00,East,97,4.0,5.0,93,0.00,,,0.00,0.000000,,2013-01-15 02:23:00,
2013-01-14 21:32:00,68.0,67.0,-100.00,East,82,4.0,5.0,95,0.00,,,0.00,0.000000,,2013-01-15 02:32:00,
2013-01-14 21:53:00,68.0,67.0,-100.00,East,82,4.0,5.0,95,0.00,,,0.00,0.000000,,2013-01-15 02:53:00,
2013-01-14 22:03:00,68.0,67.0,-100.00,East,82,4.0,5.0,95,0.00,,,0.00,0.000000,,2013-01-15 03:03:00,
2013-01-14 22:12:00,68.0,67.0,-100.00,East,82,4.0,5.0,95,0.00,,,0.00,0.000000,,2013-01-15 03:12:00,
2013-01-14 22:22:00,68.0,67.0,-100.00,East,82,4.0,5.0,95,0.00,,,0.00,0.000000,,2013-01-15 03:22:00,
2013-01-14 22:32:00,68.0,67.0,-100.00,NE,54,3.0,4.0,96,0.00,,,0.00,0.000000,,2013-01-15 03:32:00,
2013-01-14 22:53:00,68.0,67.0,-100.00,NE,54,3.0,4.0,96,0.00,,,0.00,0.000000,,2013-01-15 03:53:00,
2013-01-14 23:03:00,68.0,67.0,-100.00,NE,54,3.0,4.0,96,0.00,,,0.00,0.000000,,2013-01-15 04:03:00,
2013-01-14 23:12:00,68.0,67.0,-100.00,NE,54,3.0,4.0,96,0.00,,,0.00,0.000000,,2013-01-15 04:12:00,
2013-01-14 23:22:00,68.0,67.0,-100.00,NE,54,3.0,4.0,96,0.00,,,0.00,0.000000,,2013-01-15 04:22:00,
2013-01-14 23:32:00,68.0,67.0,-100.00,East,91,3.0,4.0,96,0.00,,,0.00,0.000000,,2013-01-15 04:32:00,
2013-01-14 23:52:00,68.0,67.0,-100.00,East,91,3.0,4.0,96,0.00,,,0.00,0.000000,,2013-01-15 04:52:00,